Time;durP1;ratioP1;P1;durP2;ratioP2;P2;SDS_P1;SDS_P2;PMS_P1;PMS_P2;Temp;Humidity;BMP_temperature;BMP_pressure;BME280_temperature;BME280_humidity;BME280_pressure;Samples;Min_cycle;Max_cycle;Signal;HPM_P1;HPM_P2
2021/05/17 00:02:48;;;;;;;1999.90;999.90;;;;;;;12.71;68.97;99661.72;15685702;28;20029;-61
2021/05/17 00:10:21;;;;;;;1999.90;999.90;;;;;;;12.62;69.01;99647.16;15685983;28;20558;-63
2021/05/17 00:17:55;;;;;;;1999.90;999.90;;;;;;;12.47;69.82;99650.84;15684724;28;20044;-63
2021/05/17 00:25:27;;;;;;;1999.90;999.90;;;;;;;12.38;69.80;99651.09;15686054;28;20075;-63
2021/05/17 00:33:01;;;;;;;1999.90;999.90;;;;;;;12.29;70.44;99649.69;15746670;28;20043;-61
2021/05/17 00:40:33;;;;;;;1999.90;999.90;;;;;;;12.24;70.25;99650.03;15745821;28;20520;-61
2021/05/17 00:48:07;;;;;;;1999.90;999.90;;;;;;;12.10;70.62;99639.38;15745052;28;20588;-62
2021/05/17 00:55:39;;;;;;;1999.90;999.90;;;;;;;12.07;70.61;99642.88;15744290;28;20465;-61
2021/05/17 01:03:13;;;;;;;1999.90;999.90;;;;;;;12.08;71.23;99644.50;15725601;28;20420;-62
2021/05/17 01:11:02;;;;;;;1999.90;999.90;;;;;;;12.07;70.60;99632.50;15725392;28;20066;-61
2021/05/17 01:18:38;;;;;;;1999.90;999.90;;;;;;;12.02;71.30;99635.63;15740982;28;20444;-61
2021/05/17 01:26:12;;;;;;;1999.90;999.90;;;;;;;12.10;71.26;99645.78;15740653;28;20040;-61
2021/05/17 01:33:45;;;;;;;1999.90;999.90;;;;;;;11.95;71.25;99649.44;15741698;28;20099;-62
2021/05/17 01:41:20;;;;;;;1999.90;999.90;;;;;;;11.97;71.48;99652.69;15739177;28;20094;-61
2021/05/17 01:48:55;;;;;;;1999.90;999.90;;;;;;;11.96;71.63;99662.25;15739715;28;20070;-62
2021/05/17 01:56:27;;;;;;;1999.90;999.90;;;;;;;12.17;71.31;99661.88;15740448;28;20463;-61
2021/05/17 02:04:08;;;;;;;1999.90;999.90;;;;;;;12.24;71.79;99664.00;15739965;28;20056;-60
2021/05/17 02:11:41;;;;;;;1999.90;999.90;;;;;;;12.22;71.18;99666.38;15740096;28;20044;-61
2021/05/17 02:19:23;;;;;;;1999.90;999.90;;;;;;;12.38;71.55;99667.88;15738030;28;20040;-61
2021/05/17 02:26:57;;;;;;;1999.90;999.90;;;;;;;12.54;72.14;99673.38;15739784;28;20037;-61
2021/05/17 02:34:29;;;;;;;1999.90;999.90;;;;;;;12.61;72.23;99670.72;15738574;28;20079;-61
2021/05/17 02:42:03;;;;;;;1999.90;999.90;;;;;;;12.53;72.56;99677.38;15739623;28;20044;-62
2021/05/17 02:49:35;;;;;;;1999.90;999.90;;;;;;;12.61;73.23;99681.91;15744296;28;20044;-60
2021/05/17 02:57:12;;;;;;;1999.90;999.90;;;;;;;12.80;74.44;99683.84;15751115;28;20041;-60
2021/05/17 03:04:56;;;;;;;1999.90;999.90;;;;;;;12.85;74.51;99688.31;15749713;28;20078;-62
2021/05/17 03:12:29;;;;;;;1999.90;999.90;;;;;;;12.83;74.00;99693.50;15732087;28;20132;-61
2021/05/17 03:20:01;;;;;;;1999.90;999.90;;;;;;;12.78;73.48;99696.59;15747808;28;20059;-63
2021/05/17 03:27:34;;;;;;;1999.90;999.90;;;;;;;12.63;73.00;99709.53;15748119;28;20131;-62
2021/05/17 03:35:06;;;;;;;1999.90;999.90;;;;;;;12.80;72.45;99714.63;15749328;28;20059;-61
2021/05/17 03:42:38;;;;;;;1999.90;999.90;;;;;;;12.90;72.63;99713.19;15748552;28;20040;-61
2021/05/17 03:50:12;;;;;;;1999.90;999.90;;;;;;;12.93;72.78;99720.88;15748678;28;20496;-62
2021/05/17 03:57:45;;;;;;;1999.90;999.90;;;;;;;12.88;72.73;99727.56;15748187;28;20106;-62
2021/05/17 04:05:36;;;;;;;1999.90;999.90;;;;;;;13.09;72.81;99717.94;15854653;22;20407;-75
2021/05/17 04:13:20;;;;;;;1999.90;999.90;;;;;;;13.11;72.47;99735.97;15872358;28;20061;-75
2021/05/17 04:20:53;;;;;;;1999.90;999.90;;;;;;;13.19;72.40;99750.94;15880127;22;20044;-82
2021/05/17 04:28:25;;;;;;;1999.90;999.90;;;;;;;13.23;72.07;99744.25;15830186;28;20144;-81
2021/05/17 04:35:57;;;;;;;1999.90;999.90;;;;;;;13.39;71.22;99740.47;15800095;28;20146;-82
2021/05/17 04:43:29;;;;;;;1999.90;999.90;;;;;;;13.98;69.67;99764.22;15850937;28;20036;-82
2021/05/17 04:51:24;;;;;;;1999.90;999.90;;;;;;;14.75;66.66;99769.22;15835181;28;20051;-83
2021/05/17 04:58:56;;;;;;;1999.90;999.90;;;;;;;14.83;66.27;99770.94;15803630;28;20509;-83
2021/05/17 05:06:28;;;;;;;1999.90;999.90;;;;;;;14.96;66.19;99772.25;15802293;28;20056;-83
2021/05/17 05:14:00;;;;;;;1999.90;999.90;;;;;;;14.84;66.09;99768.94;15783394;28;20044;-81
2021/05/17 05:21:33;;;;;;;1999.90;999.90;;;;;;;14.97;66.66;99773.06;15822902;28;20442;-83
2021/05/17 05:29:20;;;;;;;1999.90;999.90;;;;;;;15.32;65.15;99769.81;15822722;28;20055;-84
2021/05/17 05:36:51;;;;;;;1999.90;999.90;;;;;;;16.90;60.61;99787.28;15800943;28;20512;-82
2021/05/17 05:44:24;;;;;;;1999.90;999.90;;;;;;;16.06;62.20;99783.66;15784140;28;20047;-82
2021/05/17 05:52:02;;;;;;;1999.90;999.90;;;;;;;15.91;61.09;99798.00;15815058;28;20556;-81
2021/05/17 05:59:35;;;;;;;1999.90;999.90;;;;;;;17.36;58.84;99788.56;15803821;28;20036;-81
2021/05/17 06:07:06;;;;;;;1999.90;999.90;;;;;;;16.48;58.79;99796.34;15786889;28;20048;-82
2021/05/17 06:14:39;;;;;;;1999.90;999.90;;;;;;;16.81;59.63;99811.41;15802679;28;20074;-81
2021/05/17 06:22:11;;;;;;;1999.90;999.90;;;;;;;17.21;56.93;99816.75;15787598;28;20051;-82
2021/05/17 06:29:47;;;;;;;1999.90;999.90;;;;;;;16.81;57.98;99814.22;15792891;28;20252;-80
2021/05/17 06:37:18;;;;;;;1999.90;999.90;;;;;;;16.48;58.03;99815.25;15797875;28;20063;-81
2021/05/17 06:44:51;;;;;;;1999.90;999.90;;;;;;;19.04;52.47;99813.25;15798318;28;20055;-81
2021/05/17 06:52:25;;;;;;;1999.90;999.90;;;;;;;20.85;46.02;99809.25;15827746;28;20058;-82
2021/05/17 07:00:02;;;;;;;1999.90;999.90;;;;;;;21.28;45.72;99824.47;15796106;28;20392;-82
2021/05/17 07:07:47;;;;;;;1999.90;999.90;;;;;;;22.02;44.81;99815.97;15780638;28;20048;-83
2021/05/17 07:15:20;;;;;;;1999.90;999.90;;;;;;;22.63;42.66;99818.50;15772497;28;20457;-82
2021/05/17 07:30:42;;;;;;;1999.90;999.90;;;;;;;22.47;43.08;99796.47;15766897;28;20346;-84
2021/05/17 07:38:14;;;;;;;1999.90;999.90;;;;;;;23.44;41.13;99825.69;15722211;28;20053;-84
2021/05/17 07:45:47;;;;;;;1999.90;999.90;;;;;;;24.18;41.43;99829.59;15735088;28;20068;-85
2021/05/17 07:53:19;;;;;;;1999.90;999.90;;;;;;;24.70;38.61;99833.50;15760943;28;20048;-84
2021/05/17 08:00:52;;;;;;;1999.90;999.90;;;;;;;24.11;40.83;99834.66;15729180;28;20056;-84
2021/05/17 08:08:23;;;;;;;;;;;;;;;22.55;42.18;99841.81;15747960;28;20056;-85
2021/05/17 08:15:56;;;;;;;1999.90;999.90;;;;;;;23.79;42.35;99844.03;15793964;28;19970;-86
2021/05/17 08:23:30;;;;;;;1999.90;999.90;;;;;;;22.42;41.76;99842.47;15828834;28;20044;-85
2021/05/17 08:31:04;;;;;;;1999.90;999.90;;;;;;;20.75;45.36;99845.78;15788873;28;20075;-83
2021/05/17 08:38:36;;;;;;;1999.90;999.90;;;;;;;19.89;47.61;99865.63;15802568;28;20044;-84
2021/05/17 08:46:11;;;;;;;1999.90;999.90;;;;;;;19.18;48.25;99856.81;15821124;28;20075;-83
2021/05/17 08:53:45;;;;;;;1999.90;999.90;;;;;;;20.82;44.48;99856.22;15804269;28;20052;-83
2021/05/17 09:01:19;;;;;;;1999.90;999.90;;;;;;;20.70;44.36;99868.91;15812622;28;20050;-83
2021/05/17 09:08:50;;;;;;;1999.90;999.90;;;;;;;21.04;44.16;99862.44;15780066;28;20040;-85
2021/05/17 09:16:23;;;;;;;1999.90;999.90;;;;;;;20.87;45.65;99869.16;15806501;28;20499;-82
2021/05/17 09:23:55;;;;;;;1999.90;999.90;;;;;;;20.56;45.77;99863.44;15825468;28;20036;-83
2021/05/17 09:31:28;;;;;;;1999.90;999.90;;;;;;;20.21;45.33;99873.03;15796990;28;20031;-83
2021/05/17 09:39:01;;;;;;;;;;;;;;;19.78;45.57;99879.06;15792184;28;20068;-80
2021/05/17 09:46:55;;;;;;;1999.90;999.90;;;;;;;20.52;45.64;99868.31;15772348;28;19924;-81
2021/05/17 09:54:27;;;;;;;1999.90;999.90;;;;;;;21.84;42.39;99861.69;15766316;28;20082;-82
2021/05/17 10:01:59;;;;;;;1999.90;999.90;;;;;;;21.70;43.04;99889.53;15746300;28;20048;-83
2021/05/17 10:09:33;;;;;;;1999.90;999.90;;;;;;;20.65;44.57;99897.75;15723403;28;20151;-83
2021/05/17 10:17:06;;;;;;;1999.90;999.90;;;;;;;20.63;44.80;99910.69;15722774;28;20044;-83
2021/05/17 10:24:37;;;;;;;1999.90;999.90;;;;;;;22.30;43.44;99894.25;15780989;28;20565;-83
2021/05/17 10:32:10;;;;;;;1999.90;999.90;;;;;;;20.81;44.66;99897.16;15795585;28;20032;-84
2021/05/17 10:39:44;;;;;;;1999.90;999.90;;;;;;;20.77;44.32;99896.41;15823751;28;20047;-83
2021/05/17 10:47:28;;;;;;;1999.90;999.90;;;;;;;20.70;43.64;99893.63;15813946;28;20078;-83
2021/05/17 10:55:06;;;;;;;1999.90;999.90;;;;;;;20.60;44.81;99892.53;15811850;28;20048;-83
2021/05/17 11:02:40;;;;;;;1999.90;999.90;;;;;;;22.18;46.01;99880.63;15777603;28;20044;-82
2021/05/17 11:10:24;;;;;;;1999.90;999.90;;;;;;;24.27;40.58;99885.13;15796710;28;20073;-81
2021/05/17 11:18:02;;;;;;;1999.90;999.90;;;;;;;26.43;34.58;99879.91;15764199;28;20043;-83
2021/05/17 11:25:53;;;;;;;1999.90;999.90;;;;;;;23.59;37.84;99876.22;15744116;28;20040;-83
2021/05/17 11:33:25;;;;;;;1999.90;999.90;;;;;;;23.19;39.17;99881.16;15791089;28;20521;-82
2021/05/17 11:40:57;;;;;;;1999.90;999.90;;;;;;;25.84;33.89;99876.53;15828653;28;20074;-81
2021/05/17 11:48:30;;;;;;;1999.90;999.90;;;;;;;28.16;31.78;99885.16;15784957;28;20066;-81
2021/05/17 11:56:04;;;;;;;1999.90;999.90;;;;;;;25.72;31.90;99867.97;15804930;28;20142;-82
2021/05/17 12:03:41;;;;;;;1999.90;999.90;;;;;;;24.53;35.78;99869.00;15793622;28;20059;-82
2021/05/17 12:11:15;;;;;;;1999.90;999.90;;;;;;;22.96;36.91;99875.56;15822731;28;20290;-79
2021/05/17 12:18:55;;;;;;;1999.90;999.90;;;;;;;24.55;36.88;99870.16;15796921;28;20055;-81
2021/05/17 12:26:48;;;;;;;1999.90;999.90;;;;;;;23.16;37.45;99867.00;15796904;28;20130;-82
2021/05/17 12:34:20;;;;;;;1999.90;999.90;;;;;;;27.81;30.96;99875.94;15797633;28;20119;-81
2021/05/17 12:41:53;;;;;;;1999.90;999.90;;;;;;;24.84;33.21;99883.63;15797898;28;20566;-82
2021/05/17 12:49:47;;;;;;;1999.90;999.90;;;;;;;26.14;30.96;99883.69;15784582;28;20040;-82
2021/05/17 12:57:19;;;;;;;1999.90;999.90;;;;;;;29.70;29.04;99888.50;15813255;28;20051;-81
2021/05/17 13:04:55;;;;;;;1999.90;999.90;;;;;;;26.90;29.83;99881.91;15794487;28;20097;-82
2021/05/17 13:12:27;;;;;;;1999.90;999.90;;;;;;;28.46;28.60;99884.28;15782350;28;20142;-82
2021/05/17 13:20:01;;;;;;;1999.90;999.90;;;;;;;26.30;32.35;99874.19;15749796;28;20040;-81
2021/05/17 13:35:28;;;;;;;1999.90;999.90;;;;;;;23.61;34.66;99873.72;15750839;28;20046;-83
2021/05/17 13:42:59;;;;;;;;;;;;;;;23.21;36.32;99860.78;15799663;28;20048;-82
2021/05/17 13:50:34;;;;;;;1999.90;999.90;;;;;;;23.18;35.90;99858.81;15800777;28;19921;-81
2021/05/17 13:58:06;;;;;;;1999.90;999.90;;;;;;;23.93;36.31;99860.75;15741363;28;20044;-83
2021/05/17 14:05:40;;;;;;;1999.90;999.90;;;;;;;23.34;35.92;99858.84;15718607;28;20606;-81
2021/05/17 14:13:12;;;;;;;1999.90;999.90;;;;;;;22.82;36.76;99861.56;15732440;28;20404;-82
2021/05/17 14:20:46;;;;;;;1999.90;999.90;;;;;;;22.86;36.07;99854.63;15732755;28;20052;-83
2021/05/17 14:28:17;;;;;;;1999.90;999.90;;;;;;;22.88;37.04;99863.50;15756522;28;20056;-80
2021/05/17 14:35:51;;;;;;;;;;;;;;;23.11;36.13;99865.47;15722646;28;20048;-83
2021/05/17 14:43:23;;;;;;;1999.90;999.90;;;;;;;23.25;35.70;99870.06;15742223;28;19979;-82
2021/05/17 14:50:55;;;;;;;1999.90;999.90;;;;;;;23.17;36.33;99885.69;15756869;28;20135;-80
2021/05/17 14:58:27;;;;;;;1999.90;999.90;;;;;;;21.60;38.04;99886.41;15776340;28;20407;-81
2021/05/17 15:05:59;;;;;;;1999.90;999.90;;;;;;;21.64;38.61;99894.88;15824925;28;20143;-84
2021/05/17 15:13:31;;;;;;;1999.90;999.90;;;;;;;21.23;39.84;99897.84;15805626;28;20077;-83
2021/05/17 15:21:05;;;;;;;1999.90;999.90;;;;;;;21.11;41.62;99892.75;15816413;28;20047;-81
2021/05/17 15:28:37;;;;;;;1999.90;999.90;;;;;;;21.50;43.22;99912.91;15789566;28;20773;-81
2021/05/17 15:36:10;;;;;;;1999.90;999.90;;;;;;;21.53;42.39;99914.91;15803044;28;20048;-82
2021/05/17 15:43:42;;;;;;;1999.90;999.90;;;;;;;20.91;41.69;99923.78;15799899;28;20036;-80
2021/05/17 15:51:16;;;;;;;;;;;;;;;19.88;48.49;99939.66;15813935;28;20101;-81
2021/05/17 15:58:48;;;;;;;1999.90;999.90;;;;;;;18.07;56.10;99955.13;15786133;28;20317;-81
2021/05/17 16:06:20;;;;;;;1999.90;999.90;;;;;;;16.33;60.55;99969.19;15790970;28;20131;-81
2021/05/17 16:13:55;;;;;;;1999.90;999.90;;;;;;;15.35;69.58;99937.69;15799653;22;20028;-74
2021/05/17 16:21:30;;;;;;;1999.90;999.90;;;;;;;15.95;69.29;99945.97;15865486;28;20078;-75
2021/05/17 16:29:02;;;;;;;1999.90;999.90;;;;;;;16.55;66.37;99928.72;15839316;28;20127;-74
2021/05/17 16:36:36;;;;;;;1999.90;999.90;;;;;;;17.08;66.32;99938.69;15833042;28;20131;-76
2021/05/17 16:44:09;;;;;;;1999.90;999.90;;;;;;;16.90;67.48;99933.00;15836599;28;20044;-76
2021/05/17 16:51:44;;;;;;;1999.90;999.90;;;;;;;16.72;68.73;99938.53;15834759;28;20035;-75
2021/05/17 16:59:20;;;;;;;1999.90;999.90;;;;;;;16.97;67.97;99941.47;15835315;28;20036;-75
2021/05/17 17:06:52;;;;;;;1999.90;999.90;;;;;;;17.27;68.78;99949.66;15845524;28;20044;-75
2021/05/17 17:14:24;;;;;;;1999.90;999.90;;;;;;;16.85;69.09;99947.44;15827806;28;20579;-72
2021/05/17 17:21:58;;;;;;;1999.90;999.90;;;;;;;16.88;71.28;99960.72;15830533;28;20492;-72
2021/05/17 17:29:34;;;;;;;1999.90;999.90;;;;;;;16.71;70.65;99977.16;15832004;28;20078;-71
2021/05/17 17:37:09;;;;;;;1999.90;999.90;;;;;;;17.16;69.34;99983.44;15831784;28;20152;-71
2021/05/17 17:44:42;;;;;;;1999.90;999.90;;;;;;;17.27;70.74;99989.94;15828617;28;20044;-72
2021/05/17 17:52:14;;;;;;;1999.90;999.90;;;;;;;17.40;70.21;99992.38;15822222;28;20048;-71
2021/05/17 17:59:46;;;;;;;1999.90;999.90;;;;;;;17.23;70.06;100011.66;15822785;28;20515;-71
2021/05/17 18:07:18;;;;;;;1999.90;999.90;;;;;;;17.03;71.40;100018.81;15833375;28;20054;-74
2021/05/17 18:14:50;;;;;;;1999.90;999.90;;;;;;;17.12;72.35;100016.44;15848604;28;20492;-75
2021/05/17 18:22:24;;;;;;;1999.90;999.90;;;;;;;16.96;71.56;100025.19;15804847;28;20044;-74
2021/05/17 18:29:56;;;;;;;1999.90;999.90;;;;;;;16.68;71.46;100025.84;15805456;28;20073;-73
2021/05/17 18:37:29;;;;;;;1999.90;999.90;;;;;;;16.52;72.29;100033.69;15806314;28;20055;-74
2021/05/17 18:52:51;;;;;;;1999.90;999.90;;;;;;;16.11;72.40;100039.38;15804841;28;20042;-74
2021/05/17 19:00:23;;;;;;;1999.90;999.90;;;;;;;15.98;72.35;100035.22;15801956;28;20580;-74
2021/05/17 19:07:55;;;;;;;1999.90;999.90;;;;;;;15.74;73.57;100058.25;15802572;28;20051;-73
2021/05/17 19:15:28;;;;;;;1999.90;999.90;;;;;;;15.68;72.41;100066.22;15801962;28;20040;-73
2021/05/17 19:23:01;;;;;;;1999.90;999.90;;;;;;;15.53;72.90;100076.47;15801506;28;20131;-73
2021/05/17 19:30:32;;;;;;;1999.90;999.90;;;;;;;15.42;73.09;100083.09;15802649;28;20475;-73
2021/05/17 19:38:07;;;;;;;1999.90;999.90;;;;;;;15.22;73.57;100088.09;15811280;28;20079;-74
2021/05/17 19:45:38;;;;;;;1999.90;999.90;;;;;;;15.09;73.71;100078.22;15808261;28;20435;-75
2021/05/17 19:53:12;;;;;;;1999.90;999.90;;;;;;;14.90;74.31;100081.94;15813149;28;20064;-76
2021/05/17 20:00:43;;;;;;;1999.90;999.90;;;;;;;14.66;74.25;100080.38;15813131;28;20135;-74
2021/05/17 20:08:16;;;;;;;1999.90;999.90;;;;;;;14.52;73.73;100085.75;15813346;28;20040;-72
2021/05/17 20:15:50;;;;;;;1999.90;999.90;;;;;;;14.36;74.19;100094.25;15809201;28;20467;-74
2021/05/17 20:23:22;;;;;;;1999.90;999.90;;;;;;;14.31;73.92;100088.97;15806928;28;20033;-73
2021/05/17 20:30:55;;;;;;;1999.90;999.90;;;;;;;14.12;73.51;100095.44;15807811;28;20046;-74
2021/05/17 20:38:28;;;;;;;1999.90;999.90;;;;;;;13.99;73.87;100089.19;15807953;28;20083;-76
2021/05/17 20:46:06;;;;;;;1999.90;999.90;;;;;;;13.83;73.90;100091.25;15807298;28;20443;-74
2021/05/17 20:53:39;;;;;;;1999.90;999.90;;;;;;;13.86;73.66;100101.75;15806219;28;20036;-75
2021/05/17 21:01:11;;;;;;;1999.90;999.90;;;;;;;13.68;73.61;100103.38;15806984;28;20171;-74
2021/05/17 21:08:43;;;;;;;1999.90;999.90;;;;;;;13.54;73.78;100099.06;15807009;28;20044;-74
2021/05/17 21:16:14;;;;;;;1999.90;999.90;;;;;;;13.43;73.74;100102.81;15805564;28;20078;-75
2021/05/17 21:23:47;;;;;;;1999.90;999.90;;;;;;;13.29;73.47;100098.53;15803632;28;20079;-74
2021/05/17 21:31:19;;;;;;;1999.90;999.90;;;;;;;13.16;73.74;100102.63;15801963;28;20040;-74
2021/05/17 21:38:52;;;;;;;1999.90;999.90;;;;;;;13.01;73.97;100103.44;15803060;28;20032;-75
2021/05/17 21:46:25;;;;;;;1999.90;999.90;;;;;;;12.85;74.87;100122.28;15802447;28;20335;-74
2021/05/17 21:53:57;;;;;;;1999.90;999.90;;;;;;;12.76;74.89;100104.84;15799403;28;20051;-75
2021/05/17 22:01:29;;;;;;;1999.90;999.90;;;;;;;12.62;74.97;100105.31;15800977;28;20067;-75
2021/05/17 22:16:48;;;;;;;1999.90;999.90;;;;;;;12.45;75.12;100120.47;15772829;28;20084;-74
2021/05/17 22:24:23;;;;;;;1999.90;999.90;;;;;;;12.36;75.04;100126.22;15799502;28;20487;-74
2021/05/17 22:31:55;;;;;;;1999.90;999.90;;;;;;;12.22;75.06;100127.84;15864495;22;20583;-65
2021/05/17 22:39:27;;;;;;;1999.90;999.90;;;;;;;12.16;75.29;100135.66;15862348;28;20070;-65
2021/05/17 22:46:59;;;;;;;1999.90;999.90;;;;;;;12.18;75.39;100140.91;15863406;28;20097;-64
2021/05/17 22:54:32;;;;;;;1999.90;999.90;;;;;;;12.07;75.10;100152.59;15864890;28;20487;-63
2021/05/17 23:02:05;;;;;;;1999.90;999.90;;;;;;;11.93;74.83;100143.00;15862799;28;20404;-65
2021/05/17 23:09:38;;;;;;;1999.90;999.90;;;;;;;11.88;75.57;100137.66;15871859;28;20138;-65
2021/05/17 23:17:09;;;;;;;1999.90;999.90;;;;;;;11.88;74.06;100144.09;15872053;28;20039;-65
2021/05/17 23:32:32;;;;;;;1999.90;999.90;;;;;;;11.69;74.56;100149.47;15872463;28;20075;-65
2021/05/17 23:40:06;;;;;;;1999.90;999.90;;;;;;;11.61;75.24;100156.03;15873358;28;20491;-65
2021/05/17 23:47:38;;;;;;;1999.90;999.90;;;;;;;11.54;74.66;100154.63;15873348;28;20116;-65
2021/05/17 23:55:11;;;;;;;1999.90;999.90;;;;;;;11.46;74.95;100152.81;15871664;28;20051;-64
